Data for 05/03/2010

Time Sea-Level Adjusted Pressure Absolute Pressure Temperature Relative Humidity Dew Point   
(mb) (inHg) (mb) (inHg) (C) (F) (%) (C) (F)
00:05 1015 29.97 844 24.92 2.6 36.6 54 -5.8 21.6
00:10 1015 29.97 844 24.92 2.5 36.6 55 -5.7 21.7
00:15 1015 29.97 844 24.92 2.5 36.4 55 -5.6 22
00:20 1014 29.94 844 24.92 2.4 36.3 53 -6.2 20.8
00:25 1014 29.94 844 24.92 2.5 36.5 53 -6.1 21
00:30 1014 29.94 844 24.92 2.5 36.5 52 -6.5 20.3
00:35 1014 29.94 844 24.92 2.7 36.8 51 -6.4 20.5
00:40 1015 29.97 844 24.92 2.7 36.9 52 -6.2 20.9
00:45 1015 29.97 844 24.92 2.7 36.8 53 -6 21.1
00:50 1015 29.97 844 24.92 2.6 36.7 52 -6.4 20.6
00:55 1015 29.97 844 24.92 2.6 36.7 52 -6.2 20.9
01:00 1015 29.97 844 24.92 2.6 36.7 53 -6 21.2
01:05 1015 29.97 844 24.92 2.5 36.6 53 -6 21.2
01:10 1015 29.97 844 24.92 2.6 36.6 53 -6.1 21
01:15 1015 29.97 844 24.92 2.6 36.7 52 -6.3 20.7
01:20 1015 29.97 844 24.92 2.5 36.4 60 -4.6 23.7
01:25 1015 29.97 844 24.92 1.8 35.2 61 -4.9 23.3
01:30 1015 29.97 844 24.92 1.9 35.4 60 -5.1 22.9
01:35 1015 29.97 844 24.92 1.9 35.3 61 -4.9 23.2
01:40 1015 29.97 844 24.92 1.8 35.2 60 -5 22.9
01:45 1015 29.97 844 24.92 1.6 34.8 62 -5 23.1
01:50 1015 29.97 844 24.92 1.2 34.2 64 -4.9 23.1
01:55 1015 29.97 844 24.92 0.9 33.7 64 -5.1 22.7
02:00 1014 29.94 844 24.92 1.2 34.1 63 -5.2 22.7
02:05 1014 29.94 844 24.92 1.3 34.3 63 -5.1 22.9
02:10 1014 29.94 844 24.92 1.4 34.6 60 -5.5 22.1
02:15 1014 29.94 843 24.89 1.9 35.4 59 -5.2 22.6
02:20 1014 29.94 843 24.89 2 35.6 61 -4.7 23.5
02:25 1014 29.94 843 24.89 1.8 35.2 62 -4.7 23.6
02:30 1014 29.94 843 24.89 1.2 34.2 64 -4.8 23.4
02:35 1014 29.94 843 24.89 1.2 34.2 64 -4.8 23.3
02:40 1014 29.94 843 24.89 1.5 34.7 63 -4.8 23.3
02:45 1014 29.94 843 24.89 1.8 35.3 60 -5 22.9
02:50 1014 29.94 843 24.89 2.2 35.9 61 -4.6 23.7
02:55 1014 29.94 843 24.89 2.1 35.8 59 -5.1 22.9
03:00 1014 29.94 843 24.89 2.4 36.2 55 -5.9 21.4
03:05 1014 29.94 843 24.89 2.8 37 57 -4.8 23.4
03:10 1014 29.94 843 24.89 2.9 37.2 59 -4.4 24.1
03:15 1014 29.94 843 24.89 2.3 36.2 61 -4.4 24
03:20 1013 29.91 843 24.89 2.2 35.9 60 -4.8 23.4
03:25 1013 29.91 843 24.89 2.1 35.9 60 -4.9 23.2
03:30 1013 29.91 843 24.89 2.2 35.9 60 -4.7 23.5
03:35 1013 29.91 842 24.86 2.1 35.9 61 -4.7 23.6
03:40 1013 29.91 842 24.86 2 35.7 65 -4 24.9
03:45 1013 29.91 843 24.89 1.8 35.3 65 -4.1 24.6
03:50 1013 29.91 842 24.86 1.9 35.5 64 -4.1 24.6
03:55 1013 29.91 842 24.86 2.1 35.7 63 -4.2 24.4
04:00 1013 29.91 842 24.86 2.1 35.7 63 -4.2 24.5
04:05 1013 29.91 842 24.86 2.1 35.8 62 -4.4 24.1
04:10 1013 29.91 842 24.86 2.1 35.8 63 -4.2 24.5
04:15 1013 29.91 842 24.86 2 35.5 62 -4.5 23.9
04:20 1013 29.91 842 24.86 2 35.6 62 -4.6 23.8
04:25 1013 29.91 842 24.86 2.1 35.8 61 -4.6 23.6
04:30 1013 29.91 842 24.86 2.3 36.1 60 -4.7 23.6
04:35 1013 29.91 842 24.86 2.5 36.4 60 -4.6 23.7
04:40 1013 29.91 842 24.86 2.5 36.4 59 -4.7 23.5
04:45 1013 29.91 842 24.86 2.6 36.7 60 -4.4 24.1
04:50 1013 29.91 842 24.86 2.6 36.7 59 -4.6 23.7
04:55 1013 29.91 842 24.86 2.6 36.7 59 -4.5 23.9
05:00 1013 29.91 842 24.86 2.6 36.6 60 -4.4 24.1
05:05 1013 29.91 842 24.86 2.4 36.4 62 -4.1 24.7
05:10 1013 29.91 842 24.86 2.1 35.9 63 -4.2 24.5
05:15 1013 29.91 842 24.86 2.1 35.7 64 -4.1 24.6
05:20 1012 29.88 842 24.86 2 35.6 65 -3.9 24.9
05:25 1012 29.88 842 24.86 2 35.6 65 -4 24.9
05:30 1012 29.88 842 24.86 2 35.6 65 -3.8 25.1
05:35 1012 29.88 842 24.86 2 35.6 64 -4 24.8
05:40 1012 29.88 842 24.86 2.2 35.9 63 -4 24.7
05:45 1012 29.88 842 24.86 2.3 36.2 63 -4 24.8
05:50 1012 29.88 842 24.86 2.4 36.3 64 -3.7 25.3
05:55 1012 29.88 842 24.86 2.3 36.1 66 -3.5 25.7
06:00 1012 29.88 842 24.86 2.2 36 66 -3.5 25.7
06:05 1012 29.88 841 24.83 2.2 36 64 -3.8 25.2
06:10 1012 29.88 841 24.83 2.5 36.4 62 -4.1 24.6
06:15 1012 29.88 841 24.83 2.8 37 61 -3.9 24.9
06:20 1012 29.88 841 24.83 2.9 37.3 60 -4 24.8
06:25 1012 29.88 841 24.83 3 37.3 62 -3.6 25.5
06:30 1012 29.88 841 24.83 2.9 37.2 61 -3.9 24.9
06:35 1012 29.88 841 24.83 3.1 37.6 59 -4.1 24.7
06:40 1012 29.88 841 24.83 3.4 38.1 56 -4.6 23.7
06:45 1012 29.88 841 24.83 3.9 39.1 54 -4.5 23.9
06:50 1012 29.88 841 24.83 4.5 40.2 53 -4.2 24.5
06:55 1012 29.88 841 24.83 4.7 40.4 56 -3.3 26
07:00 1012 29.88 841 24.83 4.4 40 57 -3.4 25.8
07:05 1012 29.88 841 24.83 4.4 39.9 59 -2.9 26.7
07:10 1012 29.88 841 24.83 4.2 39.5 58 -3.4 25.9
07:15 1012 29.88 841 24.83 3.9 39 60 -3.2 26.3
07:20 1012 29.88 841 24.83 3.6 38.6 58 -3.7 25.3
07:25 1012 29.88 841 24.83 3.9 39 56 -4.2 24.5
07:30 1012 29.88 841 24.83 4.6 40.2 54 -4 24.8
07:35 1012 29.88 841 24.83 4.9 40.8 60 -2.3 27.9
07:40 1012 29.88 841 24.83 4.4 39.9 57 -3.3 26.1
07:45 1012 29.88 841 24.83 4.9 40.8 56 -3.1 26.5
07:50 1012 29.88 841 24.83 5.3 41.6 55 -2.9 26.7
07:55 1012 29.88 841 24.83 5.6 42.2 54 -2.8 26.9
08:00 1012 29.88 841 24.83 6 42.7 55 -2.5 27.6
08:05 1012 29.88 841 24.83 6.1 42.9 55 -2.4 27.7
08:10 1012 29.88 841 24.83 6.3 43.3 53 -2.7 27.2
08:15 1012 29.88 841 24.83 6.5 43.7 53 -2.3 27.9
08:20 1012 29.88 841 24.83 6.6 44 52 -2.4 27.7
08:25 1011 29.85 841 24.83 6.7 44.1 51 -2.6 27.2
08:30 1011 29.85 841 24.83 7 44.5 53 -2 28.4
08:35 1011 29.85 841 24.83 7 44.7 50 -2.5 27.4
08:40 1011 29.85 841 24.83 7.2 45 50 -2.4 27.7
08:45 1011 29.85 841 24.83 7.4 45.2 50 -2.4 27.7
08:50 1011 29.85 841 24.83 7.7 45.8 50 -2.2 28.1
08:55 1011 29.85 841 24.83 7.9 46.3 49 -2.1 28.2
09:00 1011 29.85 840 24.81 8.1 46.6 48 -2.3 27.9
09:05 1011 29.85 840 24.81 8.4 47.2 47 -2.3 27.8
09:10 1011 29.85 840 24.81 8.8 47.8 46 -2.2 28.1
09:15 1011 29.85 840 24.81 9 48.2 45 -2.3 27.8
09:20 1011 29.85 840 24.81 9.4 48.8 43 -2.6 27.4
09:25 1011 29.85 840 24.81 9.5 49 42 -2.6 27.3
09:30 1011 29.85 840 24.81 9.6 49.3 43 -2.2 28
09:35 1011 29.85 840 24.81 9.9 49.8 42 -2.3 27.8
09:40 1011 29.85 840 24.81 10 50.1 43 -2 28.4
09:45 1011 29.85 840 24.81 10 49.9 42 -2.2 28
09:50 1011 29.85 840 24.81 9.9 49.9 42 -2.2 28
09:55 1011 29.85 840 24.81 10 50.1 42 -2.2 28
10:00 1011 29.85 840 24.81 10.1 50.1 42 -2.2 28.1
10:05 1011 29.85 840 24.81 10.1 50.2 42 -2.1 28.1
10:10 1010 29.83 840 24.81 10.2 50.3 42 -2.2 28.1
10:15 1010 29.83 840 24.81 10.3 50.5 43 -1.7 28.9
10:20 1010 29.83 840 24.81 10.4 50.8 41 -2.2 28.1
10:25 1010 29.83 839 24.78 10.5 51 41 -2.2 28.1
10:30 1010 29.83 840 24.81 10.5 50.9 41 -2.2 28
10:35 1010 29.83 839 24.78 10.7 51.2 38 -2.9 26.8
10:40 1010 29.83 839 24.78 10.6 51.1 39 -2.6 27.3
10:45 1010 29.83 839 24.78 10.5 50.8 41 -2.2 28
10:50 1010 29.83 839 24.78 10.4 50.6 42 -1.8 28.7
10:55 1010 29.83 839 24.78 10 50.1 42 -2.4 27.7
11:00 1010 29.83 839 24.78 10.1 50.2 42 -2.3 27.8
11:05 1010 29.83 839 24.78 10.2 50.4 43 -1.7 28.9
11:10 1010 29.83 839 24.78 10.1 50.2 43 -1.9 28.5
11:15 1010 29.83 839 24.78 10.1 50.1 43 -1.9 28.6
11:20 1010 29.83 840 24.81 10 50.1 42 -2.3 27.9
11:25 1010 29.83 839 24.78 10 50 43 -2.1 28.3
11:30 1010 29.83 839 24.78 10 50 43 -1.8 28.7
11:35 1010 29.83 839 24.78 10 49.9 45 -1.5 29.4
11:40 1010 29.83 839 24.78 10 49.9 46 -1.2 29.9
11:45 1010 29.83 839 24.78 10.1 50.1 44 -1.5 29.2
11:50 1010 29.83 839 24.78 10.1 50.1 45 -1.4 29.4
11:55 1010 29.83 839 24.78 10 50 42 -2.2 28.1
12:00 1010 29.83 839 24.78 10.2 50.3 43 -1.7 28.9
12:05 1010 29.83 839 24.78 10.2 50.3 44 -1.6 29.1
12:10 1010 29.83 839 24.78 10.3 50.5 45 -1 30.1
12:15 1010 29.83 839 24.78 10.4 50.7 44 -1.3 29.6
12:20 1010 29.83 839 24.78 10.6 51 42 -1.7 29
12:25 1010 29.83 839 24.78 10.7 51.2 41 -2 28.4
12:30 1010 29.83 839 24.78 10.6 51.1 41 -1.9 28.6
12:35 1010 29.83 839 24.78 10.7 51.3 41 -2.1 28.3
12:40 1010 29.83 839 24.78 10.7 51.2 41 -2 28.4
12:45 1010 29.83 839 24.78 10.8 51.4 41 -1.9 28.7
12:50 1010 29.83 839 24.78 10.8 51.4 42 -1.7 29
12:55 1010 29.83 839 24.78 10.7 51.3 43 -1.5 29.3
13:00 1010 29.83 839 24.78 10.8 51.5 42 -1.6 29.2
13:05 1010 29.83 839 24.78 10.8 51.4 41 -1.9 28.5
13:10 1010 29.83 839 24.78 10.7 51.3 43 -1.4 29.5
13:15 1009 29.8 839 24.78 10.8 51.4 44 -1.1 30.1
13:20 1009 29.8 839 24.78 11.2 52.1 41 -1.4 29.4
13:25 1009 29.8 838 24.75 11.4 52.6 38 -2.3 27.8
13:30 1009 29.8 838 24.75 11.4 52.5 39 -2.1 28.2
13:35 1009 29.8 838 24.75 11.4 52.5 38 -2.5 27.5
13:40 1009 29.8 838 24.75 11.4 52.6 37 -2.8 27
13:45 1009 29.8 838 24.75 11.7 53 37 -2.5 27.5
13:50 1009 29.8 838 24.75 11.7 53.1 39 -1.8 28.8
13:55 1009 29.8 838 24.75 11.8 53.3 37 -2.2 28.1
14:00 1009 29.8 838 24.75 11.7 53.1 39 -1.8 28.8
14:05 1009 29.8 838 24.75 11.8 53.3 41 -1.1 30.1
14:10 1008 29.77 838 24.75 11.8 53.3 40 -1.5 29.4
14:15 1008 29.77 837 24.72 12 53.7 38 -1.9 28.6
14:20 1008 29.77 837 24.72 12.7 54.8 36 -1.9 28.7
14:25 1008 29.77 837 24.72 12.6 54.7 36 -1.9 28.7
14:30 1008 29.77 837 24.72 12.7 54.9 37 -1.7 28.9
14:35 1008 29.77 837 24.72 12.8 55 39 -0.9 30.4
14:40 1008 29.77 837 24.72 12.5 54.4 41 -0.4 31.2
14:45 1008 29.77 837 24.72 12.4 54.2 41 -0.6 30.9
14:50 1008 29.77 837 24.72 11.7 53 42 -0.9 30.4
14:55 1008 29.77 837 24.72 11.3 52.4 42 -1 30.2
15:00 1008 29.77 837 24.72 11.3 52.4 41 -1.5 29.4
15:05 1008 29.77 837 24.72 11.4 52.6 42 -0.9 30.4
15:10 1008 29.77 837 24.72 11.7 53.1 42 -0.6 30.9
15:15 1008 29.77 837 24.72 11.8 53.2 40 -1.3 29.7
15:20 1007 29.74 837 24.72 11.8 53.3 40 -1.4 29.5
15:25 1007 29.74 837 24.72 12 53.6 40 -1.2 29.9
15:30 1007 29.74 836 24.69 12.6 54.7 35 -2.4 27.7
15:35 1007 29.74 836 24.69 12.8 55 35 -2.4 27.7
15:40 1007 29.74 836 24.69 12.8 55 37 -1.6 29.1
15:45 1006 29.71 836 24.69 12.7 54.8 35 -2.2 28
15:50 1006 29.71 836 24.69 12.8 55 37 -1.6 29.1
15:55 1006 29.71 835 24.66 12.8 55.1 36 -1.7 28.9
16:00 1006 29.71 835 24.66 13 55.4 36 -1.8 28.8
16:05 1006 29.71 835 24.66 13.4 56.1 36 -1.4 29.4
16:10 1006 29.71 835 24.66 13.1 55.6 36 -1.5 29.3
16:15 1006 29.71 835 24.66 13.3 55.9 35 -1.6 29.1
16:20 1005 29.68 835 24.66 13.3 55.9 33 -2.4 27.6
16:25 1005 29.68 834 24.63 13.2 55.7 34 -2.3 27.8
16:30 1005 29.68 834 24.63 13.4 56.1 34 -2.3 27.9
16:35 1005 29.68 834 24.63 13.6 56.4 34 -1.8 28.8
16:40 1004 29.65 834 24.63 13.4 56 34 -2.1 28.3
16:45 1004 29.65 834 24.63 13.4 56.1 34 -2 28.5
16:50 1004 29.65 833 24.6 13.5 56.3 34 -2.1 28.2
16:55 1004 29.65 833 24.6 13.5 56.2 34 -2.2 28
17:00 1004 29.65 833 24.6 13.4 56.1 33 -2.4 27.6
17:05 1004 29.65 833 24.6 13.3 56 33 -2.5 27.5
17:10 1004 29.65 833 24.6 13.4 56.2 33 -2.4 27.7
17:15 1003 29.62 833 24.6 13.4 56.1 33 -2.6 27.4
17:20 1003 29.62 832 24.57 13.4 56.1 33 -2.3 27.9
17:25 1003 29.62 832 24.57 13.5 56.2 34 -2.2 28
17:30 1003 29.62 832 24.57 13.6 56.5 33 -2.4 27.7
17:35 1003 29.62 832 24.57 13.7 56.6 34 -1.7 28.9
17:40 1003 29.62 832 24.57 13.7 56.6 33 -2.2 28.1
17:45 1003 29.62 832 24.57 13.7 56.7 34 -1.7 29
17:50 1003 29.62 832 24.57 14 57.2 32 -2.5 27.6
17:55 1002 29.59 832 24.57 14.1 57.4 33 -1.9 28.7
18:00 1002 29.59 832 24.57 14 57.2 33 -1.8 28.7
18:05 1002 29.59 832 24.57 13.8 56.8 35 -1.2 29.9
18:10 1002 29.59 831 24.54 13.6 56.4 36 -1.2 29.8
18:15 1002 29.59 831 24.54 13.4 56 34 -2.1 28.2
18:20 1002 29.59 831 24.54 13.3 56 35 -1.7 28.9
18:25 1002 29.59 832 24.57 13.1 55.6 33 -2.7 27.1
18:30 1002 29.59 831 24.54 13 55.4 33 -2.7 27.1
18:35 1002 29.59 831 24.54 13.3 56 33 -2.5 27.4
18:40 1002 29.59 832 24.57 13.4 56.1 35 -1.9 28.6
18:45 1002 29.59 831 24.54 13.2 55.7 35 -1.9 28.5
18:50 1002 29.59 831 24.54 13.3 55.9 37 -1.1 30
18:55 1002 29.59 831 24.54 12.7 54.8 39 -0.8 30.5
19:00 1002 29.59 831 24.54 12.4 54.2 42 -0.2 31.6
19:05 1002 29.59 832 24.57 12.1 53.7 42 -0.3 31.5
19:10 1003 29.62 832 24.57 12.1 53.7 41 -0.6 30.9
19:15 1003 29.62 832 24.57 12.3 54.1 39 -1.3 29.7
19:20 1003 29.62 833 24.6 10.6 51.1 63 3.8 38.8
19:25 1004 29.65 833 24.6 7.1 44.7 78 3.5 38.4
19:30 1004 29.65 833 24.6 4.8 40.7 86 2.8 37
19:35 1004 29.65 833 24.6 4 39.2 89 2.4 36.4
19:40 1004 29.65 833 24.6 3.3 37.9 88 1.5 34.7
19:45 1005 29.68 834 24.63 2.3 36.1 92 1.2 34.1
19:50 1005 29.68 835 24.66 1.8 35.3 93 0.8 33.4
19:55 1006 29.71 835 24.66 1.2 34.1 94 0.3 32.6
20:00 1006 29.71 835 24.66 0.8 33.4 95 0.1 32.2
20:05 1007 29.74 836 24.69 0.5 32.9 96 -0 32
20:10 1007 29.74 836 24.69 0.4 32.7 97 -0.1 31.9
20:15 1007 29.74 837 24.72 0.4 32.7 97 -0 31.9
20:20 1008 29.77 837 24.72 0.4 32.7 97 -0 32
20:25 1008 29.77 837 24.72 0.4 32.7 97 0 32
20:30 1008 29.77 837 24.72 0.5 32.8 97 0.1 32.1
20:35 1009 29.8 838 24.75 0.4 32.7 97 -0 32
20:40 1009 29.8 838 24.75 0.2 32.4 97 -0.1 31.7
20:45 1009 29.8 838 24.75 0.2 32.4 98 -0.1 31.8
20:50 1009 29.8 838 24.75 0.2 32.4 98 -0.1 31.8
20:55 1009 29.8 838 24.75 0.4 32.7 98 0.1 32.1
21:00 1009 29.8 838 24.75 0.5 32.9 98 0.2 32.3
21:05 1009 29.8 838 24.75 0.6 33.1 96 0.1 32.1
21:10 1009 29.8 838 24.75 0.5 33 95 -0.2 31.6
21:15 1009 29.8 838 24.75 0.5 32.9 93 -0.4 31.2
21:20 1009 29.8 838 24.75 0.6 33.1 91 -0.6 30.9
21:25 1009 29.8 838 24.75 0.6 33.2 91 -0.6 30.9
21:30 1009 29.8 838 24.75 0.6 33.2 91 -0.6 30.9
21:35 1009 29.8 838 24.75 0.6 33 92 -0.6 30.8
21:40 1009 29.8 838 24.75 0.6 33 91 -0.7 30.8
21:45 1009 29.8 838 24.75 0.7 33.2 91 -0.6 30.9
21:50 1009 29.8 838 24.75 0.9 33.6 90 -0.7 30.8
21:55 1009 29.8 838 24.75 0.9 33.6 88 -0.8 30.5
22:00 1009 29.8 838 24.75 1 33.8 85 -1.3 29.7
22:05 1009 29.8 838 24.75 1.2 34.2 81 -1.7 29
22:10 1009 29.8 838 24.75 1.3 34.4 79 -1.9 28.5
22:15 1009 29.8 838 24.75 1.5 34.7 80 -1.6 29.2
22:20 1009 29.8 838 24.75 1.6 34.8 75 -2.4 27.8
22:25 1009 29.8 838 24.75 1.7 35 71 -3 26.6
22:30 1009 29.8 838 24.75 1.7 35.1 71 -2.9 26.7
22:35 1009 29.8 838 24.75 1.7 35.1 73 -2.6 27.3
22:40 1009 29.8 839 24.78 1.6 35 74 -2.5 27.4
22:45 1010 29.83 839 24.78 1.6 34.9 75 -2.4 27.7
22:50 1009 29.8 839 24.78 1.6 34.8 72 -3 26.6
22:55 1010 29.83 839 24.78 1.7 35 72 -2.9 26.8
23:00 1010 29.83 839 24.78 1.7 35 71 -3.1 26.5
23:05 1010 29.83 839 24.78 1.7 35.1 67 -3.8 25.1
23:10 1010 29.83 839 24.78 1.8 35.3 66 -3.9 25
23:15 1010 29.83 839 24.78 1.8 35.2 69 -3.3 26
23:20 1010 29.83 839 24.78 1.6 35 66 -4 24.9
23:25 1010 29.83 839 24.78 1.6 35 64 -4.4 24.2
23:30 1010 29.83 839 24.78 1.7 35 65 -4.3 24.3
23:35 1010 29.83 839 24.78 1.7 35 65 -4.2 24.5
23:40 1010 29.83 839 24.78 1.6 34.8 65 -4.4 24.2
23:45 1010 29.83 839 24.78 1.5 34.6 65 -4.4 24
23:50 1010 29.83 839 24.78 1.3 34.4 68 -3.9 25
23:55 1010 29.83 839 24.78 1.2 34.2 67 -4.3 24.3
24:00 1010 29.83 839 24.78 1.1 34 66 -4.5 23.9